UKV740 EGCC-EDDM
Flight info
| Callsign | UKV740 |
|---|---|
| Flight time | 1h 39m |
| Altitude | 37000 |
| Route | DESIG L603 DOLAS DCT NAVPI DCT NOLRU DCT DIXAT DCT DOJOH DCT DODEN/N0443F330 DCT TABUM DCT BOMBI T104 HAREM/N0412F270 T104 ROKIL ROKIL1B |
| Aircraft | B738/M-SDE2E3FGHIRWXY/LB1 |
Departure
| Time | 2026-05-06 21:35 |
|---|---|
| Airport | Manchester Airport (EGCC) |
Arrival
| Time | 2026-05-06 23:14 |
|---|---|
| Airport | Munich Airport (EDDM) |
| Time | Latitude | Longitude | Altitude | Speed | Heading |
|---|---|---|---|---|---|
| 2026-05-06 21:04 | 53.36257 | -2.27771 | 246 ft | 0 kts | 194° |
| 2026-05-06 21:19 | 53.36274 | -2.27764 | 246 ft | 3 kts | 194° |
| 2026-05-06 21:19 | 53.36292 | -2.27756 | 246 ft | 3 kts | 194° |
| 2026-05-06 21:20 | 53.36311 | -2.27746 | 245 ft | 3 kts | 213° |
| 2026-05-06 21:20 | 53.36325 | -2.27723 | 245 ft | 3 kts | 246° |
| 2026-05-06 21:20 | 53.36329 | -2.27692 | 245 ft | 3 kts | 275° |
| 2026-05-06 21:20 | 53.36327 | -2.27671 | 245 ft | 0 kts | 275° |
| 2026-05-06 21:26 | 53.36328 | -2.27672 | 245 ft | 1 kts | 275° |
| 2026-05-06 21:26 | 53.36330 | -2.27697 | 245 ft | 4 kts | 284° |
| 2026-05-06 21:26 | 53.36343 | -2.27767 | 246 ft | 9 kts | 289° |
| 2026-05-06 21:27 | 53.36384 | -2.27863 | 246 ft | 12 kts | 318° |
| 2026-05-06 21:27 | 53.36442 | -2.27977 | 247 ft | 13 kts | 290° |
| 2026-05-06 21:27 | 53.36403 | -2.28104 | 249 ft | 13 kts | 226° |
| 2026-05-06 21:27 | 53.36341 | -2.28208 | 250 ft | 13 kts | 217° |
| 2026-05-06 21:28 | 53.36277 | -2.28200 | 250 ft | 8 kts | 137° |
| 2026-05-06 21:28 | 53.36233 | -2.28126 | 250 ft | 10 kts | 134° |
| 2026-05-06 21:28 | 53.36178 | -2.28141 | 250 ft | 10 kts | 231° |
| 2026-05-06 21:28 | 53.36123 | -2.28171 | 251 ft | 10 kts | 153° |
| 2026-05-06 21:29 | 53.36113 | -2.28104 | 250 ft | 7 kts | 57° |
| 2026-05-06 21:29 | 53.36112 | -2.28022 | 249 ft | 8 kts | 100° |
| 2026-05-06 21:29 | 53.36104 | -2.27928 | 249 ft | 8 kts | 110° |
| 2026-05-06 21:29 | 53.36065 | -2.27855 | 248 ft | 9 kts | 152° |
| 2026-05-06 21:30 | 53.36006 | -2.27835 | 248 ft | 8 kts | 180° |
| 2026-05-06 21:30 | 53.35948 | -2.27843 | 248 ft | 8 kts | 184° |
| 2026-05-06 21:30 | 53.35892 | -2.27851 | 249 ft | 8 kts | 186° |
| 2026-05-06 21:30 | 53.35838 | -2.27860 | 249 ft | 8 kts | 186° |
| 2026-05-06 21:31 | 53.35781 | -2.27870 | 249 ft | 9 kts | 186° |
| 2026-05-06 21:31 | 53.35712 | -2.27882 | 250 ft | 11 kts | 186° |
| 2026-05-06 21:31 | 53.35629 | -2.27902 | 250 ft | 13 kts | 204° |
| 2026-05-06 21:31 | 53.35572 | -2.28015 | 251 ft | 13 kts | 232° |
| 2026-05-06 21:32 | 53.35499 | -2.28118 | 252 ft | 14 kts | 207° |
| 2026-05-06 21:32 | 53.35292 | -2.28223 | 253 ft | 17 kts | 212° |
| 2026-05-06 21:32 | 53.35207 | -2.28355 | 255 ft | 17 kts | 231° |
| 2026-05-06 21:33 | 53.35134 | -2.28501 | 256 ft | 16 kts | 230° |
| 2026-05-06 21:33 | 53.35064 | -2.28644 | 258 ft | 15 kts | 230° |
| 2026-05-06 21:33 | 53.34986 | -2.28746 | 260 ft | 15 kts | 176° |
| 2026-05-06 21:33 | 53.34901 | -2.28654 | 261 ft | 14 kts | 141° |
| 2026-05-06 21:34 | 53.34863 | -2.28568 | 262 ft | 8 kts | 71° |
| 2026-05-06 21:34 | 53.34874 | -2.28537 | 261 ft | 0 kts | 47° |
| 2026-05-06 21:34 | 53.34903 | -2.28478 | 261 ft | 31 kts | 50° |
| 2026-05-06 21:34 | 53.35195 | -2.27871 | 252 ft | 101 kts | 51° |
| 2026-05-06 21:35 | 53.35760 | -2.26678 | 250 ft | 157 kts | 52° |
| 2026-05-06 21:35 | 53.36489 | -2.25292 | 895 ft | 154 kts | 45° |
| 2026-05-06 21:35 | 53.37274 | -2.23914 | 1405 ft | 178 kts | 49° |
| 2026-05-06 21:35 | 53.38208 | -2.22331 | 1808 ft | 200 kts | 49° |
| 2026-05-06 21:36 | 53.39144 | -2.20496 | 2159 ft | 216 kts | 57° |
| 2026-05-06 21:36 | 53.40067 | -2.18341 | 2451 ft | 241 kts | 57° |
| 2026-05-06 21:36 | 53.41094 | -2.15859 | 2441 ft | 279 kts | 57° |
| 2026-05-06 21:36 | 53.42244 | -2.13122 | 3009 ft | 286 kts | 56° |
| 2026-05-06 21:37 | 53.43410 | -2.10509 | 4208 ft | 272 kts | 53° |
| 2026-05-06 21:37 | 53.44555 | -2.08017 | 4868 ft | 267 kts | 51° |
| 2026-05-06 21:37 | 53.45691 | -2.05579 | 5358 ft | 264 kts | 50° |
| 2026-05-06 21:37 | 53.46817 | -2.03174 | 6226 ft | 262 kts | 50° |
| 2026-05-06 21:38 | 53.47948 | -2.00754 | 6877 ft | 267 kts | 50° |
| 2026-05-06 21:38 | 53.49110 | -1.98296 | 7508 ft | 270 kts | 50° |
| 2026-05-06 21:38 | 53.50296 | -1.95821 | 8141 ft | 275 kts | 49° |
| 2026-05-06 21:38 | 53.51511 | -1.93295 | 8669 ft | 285 kts | 51° |
| 2026-05-06 21:39 | 53.52525 | -1.90382 | 9272 ft | 291 kts | 70° |
| 2026-05-06 21:39 | 53.52805 | -1.88177 | 9739 ft | 295 kts | 90° |
| 2026-05-06 21:39 | 53.52128 | -1.83599 | 10144 ft | 317 kts | 111° |
| 2026-05-06 21:39 | 53.51322 | -1.80036 | 10334 ft | 336 kts | 111° |
| 2026-05-06 21:40 | 53.50783 | -1.77555 | 10500 ft | 346 kts | 110° |
| 2026-05-06 21:40 | 53.50001 | -1.73665 | 10910 ft | 355 kts | 108° |
| 2026-05-06 21:40 | 53.49265 | -1.69695 | 11562 ft | 356 kts | 107° |
| 2026-05-06 21:40 | 53.48557 | -1.65694 | 12228 ft | 358 kts | 107° |
| 2026-05-06 21:41 | 53.47848 | -1.61663 | 12830 ft | 364 kts | 107° |
| 2026-05-06 21:41 | 53.46887 | -1.56225 | 13637 ft | 370 kts | 107° |
| 2026-05-06 21:41 | 53.46140 | -1.52074 | 14267 ft | 373 kts | 107° |
| 2026-05-06 21:41 | 53.45630 | -1.49257 | 14705 ft | 374 kts | 107° |
| 2026-05-06 21:42 | 53.44623 | -1.43701 | 15494 ft | 379 kts | 108° |
| 2026-05-06 21:42 | 53.44103 | -1.40830 | 15885 ft | 382 kts | 108° |
| 2026-05-06 21:42 | 53.43330 | -1.36548 | 16500 ft | 385 kts | 108° |
| 2026-05-06 21:42 | 53.42546 | -1.32229 | 17104 ft | 389 kts | 108° |
| 2026-05-06 21:43 | 53.41762 | -1.27929 | 17685 ft | 393 kts | 108° |
| 2026-05-06 21:43 | 53.40980 | -1.23524 | 18265 ft | 396 kts | 107° |
| 2026-05-06 21:43 | 53.40203 | -1.19077 | 18783 ft | 400 kts | 108° |
| 2026-05-06 21:43 | 53.39391 | -1.14606 | 19318 ft | 402 kts | 108° |
| 2026-05-06 21:44 | 53.38566 | -1.10119 | 19837 ft | 405 kts | 108° |
| 2026-05-06 21:44 | 53.37723 | -1.05600 | 20326 ft | 408 kts | 108° |
| 2026-05-06 21:44 | 53.36872 | -1.01051 | 20822 ft | 411 kts | 109° |
| 2026-05-06 21:44 | 53.36020 | -0.96467 | 21322 ft | 414 kts | 108° |
| 2026-05-06 21:45 | 53.35172 | -0.91859 | 21825 ft | 416 kts | 108° |
| 2026-05-06 21:45 | 53.34318 | -0.87209 | 22316 ft | 419 kts | 108° |
| 2026-05-06 21:45 | 53.33454 | -0.82541 | 22769 ft | 422 kts | 108° |
| 2026-05-06 21:45 | 53.32582 | -0.77830 | 23226 ft | 425 kts | 108° |
| 2026-05-06 21:46 | 53.31699 | -0.73087 | 23674 ft | 428 kts | 108° |
| 2026-05-06 21:46 | 53.30807 | -0.68328 | 24055 ft | 431 kts | 108° |
| 2026-05-06 21:46 | 53.29905 | -0.63538 | 24447 ft | 433 kts | 108° |
| 2026-05-06 21:46 | 53.28997 | -0.58737 | 24840 ft | 434 kts | 108° |
| 2026-05-06 21:47 | 53.28086 | -0.53906 | 25208 ft | 437 kts | 108° |
| 2026-05-06 21:47 | 53.27168 | -0.49058 | 25565 ft | 439 kts | 108° |
| 2026-05-06 21:47 | 53.26241 | -0.44186 | 25919 ft | 441 kts | 107° |
| 2026-05-06 21:47 | 53.25317 | -0.39292 | 26266 ft | 443 kts | 108° |
| 2026-05-06 21:48 | 53.24386 | -0.34382 | 26648 ft | 444 kts | 107° |
| 2026-05-06 21:48 | 53.23454 | -0.29464 | 27052 ft | 444 kts | 108° |
| 2026-05-06 21:48 | 53.22512 | -0.24539 | 27363 ft | 447 kts | 108° |
| 2026-05-06 21:48 | 53.21555 | -0.19591 | 27674 ft | 450 kts | 107° |
| 2026-05-06 21:49 | 53.20593 | -0.14610 | 27973 ft | 452 kts | 108° |
| 2026-05-06 21:49 | 53.19630 | -0.09623 | 28293 ft | 453 kts | 108° |
| 2026-05-06 21:49 | 53.18649 | -0.04614 | 28610 ft | 455 kts | 108° |
| 2026-05-06 21:49 | 53.17665 | 0.00407 | 28903 ft | 457 kts | 108° |
| 2026-05-06 21:50 | 53.16687 | 0.05382 | 29168 ft | 459 kts | 108° |
| 2026-05-06 21:50 | 53.15693 | 0.10448 | 29426 ft | 461 kts | 108° |
| 2026-05-06 21:50 | 53.14696 | 0.15541 | 29716 ft | 463 kts | 108° |
| 2026-05-06 21:50 | 53.13701 | 0.20639 | 29968 ft | 464 kts | 108° |
| 2026-05-06 21:51 | 53.12697 | 0.25769 | 30191 ft | 466 kts | 108° |
| 2026-05-06 21:51 | 53.11689 | 0.30902 | 30432 ft | 467 kts | 108° |
| 2026-05-06 21:51 | 53.10677 | 0.36035 | 30723 ft | 467 kts | 108° |
| 2026-05-06 21:51 | 53.09663 | 0.41163 | 31016 ft | 466 kts | 108° |
| 2026-05-06 21:52 | 53.08649 | 0.46279 | 31308 ft | 466 kts | 108° |
| 2026-05-06 21:52 | 53.07635 | 0.51390 | 31601 ft | 465 kts | 108° |
| 2026-05-06 21:52 | 53.06616 | 0.56514 | 31727 ft | 469 kts | 109° |
| 2026-05-06 21:52 | 53.05594 | 0.61678 | 31891 ft | 471 kts | 108° |
| 2026-05-06 21:53 | 53.04580 | 0.66821 | 32344 ft | 466 kts | 108° |
| 2026-05-06 21:53 | 53.03556 | 0.71914 | 32643 ft | 465 kts | 109° |
| 2026-05-06 21:53 | 53.02530 | 0.77029 | 32785 ft | 468 kts | 108° |
| 2026-05-06 21:53 | 53.01502 | 0.82162 | 33011 ft | 468 kts | 109° |
| 2026-05-06 21:54 | 53.00467 | 0.87255 | 33435 ft | 464 kts | 109° |
| 2026-05-06 21:54 | 52.99452 | 0.92329 | 33691 ft | 464 kts | 109° |
| 2026-05-06 21:54 | 52.98423 | 0.97406 | 33841 ft | 465 kts | 109° |
| 2026-05-06 21:54 | 52.97369 | 1.02494 | 34009 ft | 466 kts | 111° |
| 2026-05-06 21:55 | 52.96247 | 1.07543 | 34190 ft | 467 kts | 112° |
| 2026-05-06 21:55 | 52.95094 | 1.12567 | 34393 ft | 466 kts | 112° |
| 2026-05-06 21:55 | 52.93936 | 1.17584 | 34579 ft | 466 kts | 112° |
| 2026-05-06 21:55 | 52.92777 | 1.22599 | 34744 ft | 466 kts | 112° |
| 2026-05-06 21:56 | 52.91620 | 1.27618 | 34916 ft | 466 kts | 112° |
| 2026-05-06 21:56 | 52.90468 | 1.32624 | 35102 ft | 466 kts | 112° |
| 2026-05-06 21:56 | 52.89313 | 1.37648 | 35274 ft | 466 kts | 112° |
| 2026-05-06 21:56 | 52.88155 | 1.42664 | 35410 ft | 467 kts | 112° |
| 2026-05-06 21:57 | 52.86998 | 1.47679 | 35575 ft | 466 kts | 112° |
| 2026-05-06 21:57 | 52.85849 | 1.52692 | 35762 ft | 466 kts | 112° |
| 2026-05-06 21:57 | 52.84698 | 1.57704 | 35914 ft | 466 kts | 112° |
| 2026-05-06 21:57 | 52.83541 | 1.62714 | 36049 ft | 466 kts | 113° |
| 2026-05-06 21:58 | 52.82369 | 1.67710 | 36202 ft | 466 kts | 113° |
| 2026-05-06 21:58 | 52.81211 | 1.72706 | 36355 ft | 466 kts | 113° |
| 2026-05-06 21:58 | 52.80053 | 1.77710 | 36495 ft | 466 kts | 113° |
| 2026-05-06 21:58 | 52.78892 | 1.82709 | 36625 ft | 466 kts | 113° |
| 2026-05-06 21:59 | 52.77718 | 1.87703 | 36749 ft | 466 kts | 114° |
| 2026-05-06 21:59 | 52.76532 | 1.92680 | 36890 ft | 466 kts | 114° |
| 2026-05-06 21:59 | 52.75359 | 1.97665 | 37024 ft | 465 kts | 114° |
| 2026-05-06 21:59 | 52.74194 | 2.02652 | 37008 ft | 467 kts | 114° |
| 2026-05-06 22:00 | 52.71853 | 2.12656 | 37032 ft | 468 kts | 114° |
| 2026-05-06 22:00 | 52.69470 | 2.22662 | 37033 ft | 470 kts | 114° |
| 2026-05-06 22:01 | 52.67086 | 2.32623 | 37041 ft | 471 kts | 114° |
| 2026-05-06 22:01 | 52.64679 | 2.42657 | 37028 ft | 471 kts | 114° |
| 2026-05-06 22:02 | 52.62278 | 2.52701 | 37021 ft | 471 kts | 114° |
| 2026-05-06 22:02 | 52.59875 | 2.62730 | 37016 ft | 471 kts | 114° |
| 2026-05-06 22:03 | 52.57448 | 2.72726 | 37013 ft | 470 kts | 115° |
| 2026-05-06 22:03 | 52.55013 | 2.82677 | 37015 ft | 469 kts | 115° |
| 2026-05-06 22:04 | 52.52361 | 2.92431 | 37018 ft | 466 kts | 119° |
| 2026-05-06 22:04 | 52.49519 | 3.01974 | 37005 ft | 465 kts | 119° |
| 2026-05-06 22:05 | 52.46680 | 3.11494 | 36996 ft | 464 kts | 120° |
| 2026-05-06 22:05 | 52.43859 | 3.20986 | 36999 ft | 463 kts | 119° |
| 2026-05-06 22:06 | 52.41051 | 3.30476 | 36989 ft | 463 kts | 119° |
| 2026-05-06 22:06 | 52.38261 | 3.39963 | 37003 ft | 463 kts | 118° |
| 2026-05-06 22:07 | 52.35481 | 3.49467 | 36984 ft | 463 kts | 118° |
| 2026-05-06 22:07 | 52.32659 | 3.58956 | 37006 ft | 464 kts | 119° |
| 2026-05-06 22:08 | 52.29811 | 3.68431 | 36972 ft | 465 kts | 119° |
| 2026-05-06 22:08 | 52.26941 | 3.77901 | 36995 ft | 466 kts | 119° |
| 2026-05-06 22:09 | 52.24084 | 3.87398 | 36981 ft | 466 kts | 119° |
| 2026-05-06 22:09 | 52.21221 | 3.96894 | 36990 ft | 466 kts | 119° |
| 2026-05-06 22:10 | 52.18351 | 4.06367 | 36981 ft | 466 kts | 119° |
| 2026-05-06 22:10 | 52.15479 | 4.15804 | 36983 ft | 465 kts | 118° |
| 2026-05-06 22:11 | 52.12622 | 4.25232 | 36984 ft | 464 kts | 118° |
| 2026-05-06 22:11 | 52.09769 | 4.34541 | 36971 ft | 462 kts | 118° |
| 2026-05-06 22:12 | 52.06864 | 4.43941 | 36961 ft | 461 kts | 119° |
| 2026-05-06 22:12 | 52.04000 | 4.53175 | 36963 ft | 460 kts | 120° |
| 2026-05-06 22:13 | 52.01108 | 4.62429 | 36995 ft | 459 kts | 120° |
| 2026-05-06 22:13 | 51.98226 | 4.71663 | 36966 ft | 458 kts | 118° |
| 2026-05-06 22:14 | 51.95366 | 4.80887 | 36971 ft | 458 kts | 119° |
| 2026-05-06 22:14 | 51.92475 | 4.90091 | 36977 ft | 458 kts | 119° |
| 2026-05-06 22:15 | 51.89573 | 4.99301 | 36969 ft | 459 kts | 120° |
| 2026-05-06 22:15 | 51.86648 | 5.08496 | 36959 ft | 460 kts | 119° |
| 2026-05-06 22:16 | 51.83735 | 5.17699 | 36970 ft | 459 kts | 120° |
| 2026-05-06 22:16 | 51.80785 | 5.26858 | 36957 ft | 459 kts | 120° |
| 2026-05-06 22:17 | 51.77862 | 5.36029 | 36954 ft | 459 kts | 120° |
| 2026-05-06 22:17 | 51.74924 | 5.45184 | 36965 ft | 459 kts | 120° |
| 2026-05-06 22:18 | 51.71971 | 5.54344 | 36955 ft | 461 kts | 120° |
| 2026-05-06 22:18 | 51.69026 | 5.63506 | 36973 ft | 460 kts | 119° |
| 2026-05-06 22:19 | 51.66061 | 5.72639 | 36959 ft | 460 kts | 120° |
| 2026-05-06 22:19 | 51.63098 | 5.81760 | 36960 ft | 459 kts | 120° |
| 2026-05-06 22:20 | 51.60118 | 5.90842 | 36973 ft | 459 kts | 120° |
| 2026-05-06 22:20 | 51.57144 | 5.99915 | 36966 ft | 458 kts | 120° |
| 2026-05-06 22:21 | 51.54182 | 6.08975 | 36968 ft | 458 kts | 120° |
| 2026-05-06 22:21 | 51.51186 | 6.17996 | 36965 ft | 458 kts | 121° |
| 2026-05-06 22:22 | 51.48485 | 6.27243 | 36975 ft | 458 kts | 115° |
| 2026-05-06 22:22 | 51.46180 | 6.36786 | 36963 ft | 459 kts | 114° |
| 2026-05-06 22:23 | 51.43894 | 6.46338 | 36946 ft | 459 kts | 114° |
| 2026-05-06 22:23 | 51.41585 | 6.55787 | 36933 ft | 459 kts | 115° |
| 2026-05-06 22:24 | 51.39237 | 6.65281 | 36932 ft | 459 kts | 115° |
| 2026-05-06 22:24 | 51.36883 | 6.74766 | 36930 ft | 458 kts | 114° |
| 2026-05-06 22:25 | 51.34535 | 6.84245 | 36935 ft | 458 kts | 115° |
| 2026-05-06 22:25 | 51.32165 | 6.93697 | 36932 ft | 459 kts | 115° |
| 2026-05-06 22:26 | 51.29807 | 7.03160 | 36949 ft | 458 kts | 114° |
| 2026-05-06 22:26 | 51.27203 | 7.12437 | 36938 ft | 456 kts | 126° |
| 2026-05-06 22:27 | 51.23254 | 7.20248 | 36929 ft | 451 kts | 140° |
| 2026-05-06 22:27 | 51.18530 | 7.26811 | 36918 ft | 450 kts | 143° |
| 2026-05-06 22:28 | 51.14534 | 7.32121 | 36919 ft | 450 kts | 142° |
| 2026-05-06 22:28 | 51.09781 | 7.38611 | 36927 ft | 450 kts | 142° |
| 2026-05-06 22:29 | 51.05040 | 7.45111 | 36913 ft | 450 kts | 143° |
| 2026-05-06 22:29 | 51.00323 | 7.51638 | 36923 ft | 450 kts | 142° |
| 2026-05-06 22:30 | 50.95602 | 7.58158 | 36891 ft | 450 kts | 142° |
| 2026-05-06 22:30 | 50.90876 | 7.64636 | 36906 ft | 449 kts | 143° |
| 2026-05-06 22:31 | 50.86149 | 7.71087 | 36895 ft | 448 kts | 143° |
| 2026-05-06 22:31 | 50.81469 | 7.77626 | 36870 ft | 450 kts | 141° |
| 2026-05-06 22:32 | 50.76922 | 7.84398 | 36873 ft | 449 kts | 140° |
| 2026-05-06 22:32 | 50.72397 | 7.91164 | 36865 ft | 448 kts | 140° |
| 2026-05-06 22:33 | 50.67874 | 7.97938 | 36860 ft | 448 kts | 140° |
| 2026-05-06 22:33 | 50.63322 | 8.04648 | 36870 ft | 448 kts | 140° |
| 2026-05-06 22:34 | 50.58627 | 8.11098 | 36875 ft | 447 kts | 149° |
| 2026-05-06 22:34 | 50.53366 | 8.16304 | 36887 ft | 448 kts | 151° |
| 2026-05-06 22:35 | 50.48078 | 8.21463 | 36885 ft | 446 kts | 151° |
| 2026-05-06 22:35 | 50.42859 | 8.26674 | 36884 ft | 443 kts | 150° |
| 2026-05-06 22:36 | 50.37676 | 8.31879 | 36876 ft | 441 kts | 151° |
| 2026-05-06 22:36 | 50.32513 | 8.37040 | 36874 ft | 439 kts | 152° |
| 2026-05-06 22:37 | 50.27623 | 8.42725 | 36885 ft | 441 kts | 136° |
| 2026-05-06 22:37 | 50.23515 | 8.49842 | 36883 ft | 441 kts | 136° |
| 2026-05-06 22:38 | 50.19396 | 8.56857 | 36877 ft | 442 kts | 136° |
| 2026-05-06 22:38 | 50.15225 | 8.63899 | 36892 ft | 442 kts | 136° |
| 2026-05-06 22:39 | 50.11042 | 8.70964 | 36889 ft | 444 kts | 136° |
| 2026-05-06 22:39 | 50.06839 | 8.78038 | 36883 ft | 445 kts | 136° |
| 2026-05-06 22:40 | 50.02439 | 8.84800 | 36887 ft | 445 kts | 141° |
| 2026-05-06 22:40 | 49.97809 | 8.91178 | 36877 ft | 446 kts | 142° |
| 2026-05-06 22:41 | 49.90856 | 9.00778 | 36870 ft | 446 kts | 142° |
| 2026-05-06 22:42 | 49.86245 | 9.07215 | 36887 ft | 446 kts | 142° |
| 2026-05-06 22:42 | 49.81663 | 9.13697 | 36873 ft | 446 kts | 142° |
| 2026-05-06 22:43 | 49.77070 | 9.20142 | 36885 ft | 445 kts | 142° |
| 2026-05-06 22:43 | 49.72454 | 9.26531 | 36882 ft | 446 kts | 142° |
| 2026-05-06 22:44 | 49.67845 | 9.32953 | 36874 ft | 445 kts | 142° |
| 2026-05-06 22:44 | 49.63277 | 9.39293 | 36875 ft | 444 kts | 142° |
| 2026-05-06 22:45 | 49.58955 | 9.46117 | 36897 ft | 445 kts | 135° |
| 2026-05-06 22:45 | 49.54914 | 9.53353 | 36879 ft | 445 kts | 135° |
| 2026-05-06 22:46 | 49.50862 | 9.60589 | 36557 ft | 451 kts | 136° |
| 2026-05-06 22:46 | 49.48794 | 9.64236 | 36069 ft | 452 kts | 135° |
| 2026-05-06 22:46 | 49.46727 | 9.67867 | 35449 ft | 451 kts | 135° |
| 2026-05-06 22:46 | 49.44660 | 9.71499 | 34828 ft | 452 kts | 135° |
| 2026-05-06 22:47 | 49.42585 | 9.75138 | 34205 ft | 452 kts | 135° |
| 2026-05-06 22:47 | 49.40524 | 9.78752 | 33726 ft | 449 kts | 135° |
| 2026-05-06 22:47 | 49.38460 | 9.82352 | 33178 ft | 447 kts | 134° |
| 2026-05-06 22:47 | 49.36404 | 9.85886 | 32699 ft | 441 kts | 136° |
| 2026-05-06 22:48 | 49.34365 | 9.89351 | 32271 ft | 435 kts | 136° |
| 2026-05-06 22:48 | 49.32347 | 9.92787 | 31830 ft | 431 kts | 136° |
| 2026-05-06 22:48 | 49.30356 | 9.96188 | 31358 ft | 427 kts | 136° |
| 2026-05-06 22:48 | 49.28384 | 9.99578 | 30924 ft | 424 kts | 135° |
| 2026-05-06 22:49 | 49.26435 | 10.02933 | 30480 ft | 421 kts | 136° |
| 2026-05-06 22:49 | 49.24493 | 10.06265 | 30038 ft | 418 kts | 136° |
| 2026-05-06 22:49 | 49.22554 | 10.09557 | 29523 ft | 415 kts | 136° |
| 2026-05-06 22:49 | 49.20628 | 10.12819 | 29048 ft | 410 kts | 136° |
| 2026-05-06 22:50 | 49.18735 | 10.16055 | 28597 ft | 406 kts | 136° |
| 2026-05-06 22:50 | 49.16876 | 10.19275 | 28168 ft | 402 kts | 135° |
| 2026-05-06 22:50 | 49.15036 | 10.22456 | 27674 ft | 398 kts | 137° |
| 2026-05-06 22:50 | 49.13207 | 10.25594 | 27301 ft | 392 kts | 139° |
| 2026-05-06 22:51 | 49.11354 | 10.28608 | 26861 ft | 388 kts | 140° |
| 2026-05-06 22:51 | 49.09496 | 10.31568 | 26473 ft | 384 kts | 141° |
| 2026-05-06 22:51 | 49.07655 | 10.34498 | 26030 ft | 381 kts | 140° |
| 2026-05-06 22:51 | 49.05833 | 10.37410 | 25618 ft | 378 kts | 140° |
| 2026-05-06 22:52 | 49.04031 | 10.40306 | 25202 ft | 375 kts | 141° |
| 2026-05-06 22:52 | 49.02240 | 10.43180 | 24776 ft | 373 kts | 140° |
| 2026-05-06 22:52 | 49.00458 | 10.46033 | 24379 ft | 371 kts | 140° |
| 2026-05-06 22:52 | 48.98677 | 10.48850 | 23977 ft | 368 kts | 141° |
| 2026-05-06 22:53 | 48.96897 | 10.51634 | 23570 ft | 366 kts | 141° |
| 2026-05-06 22:53 | 48.95123 | 10.54401 | 23096 ft | 364 kts | 141° |
| 2026-05-06 22:53 | 48.93370 | 10.57167 | 22640 ft | 362 kts | 140° |
| 2026-05-06 22:53 | 48.91640 | 10.59924 | 22243 ft | 358 kts | 138° |
| 2026-05-06 22:54 | 48.89932 | 10.62657 | 21845 ft | 355 kts | 138° |
| 2026-05-06 22:54 | 48.88240 | 10.65357 | 21452 ft | 352 kts | 139° |
| 2026-05-06 22:54 | 48.86561 | 10.68049 | 21042 ft | 349 kts | 138° |
| 2026-05-06 22:54 | 48.84895 | 10.70718 | 20649 ft | 347 kts | 139° |
| 2026-05-06 22:55 | 48.83229 | 10.73352 | 20247 ft | 345 kts | 139° |
| 2026-05-06 22:55 | 48.81596 | 10.75932 | 19868 ft | 343 kts | 139° |
| 2026-05-06 22:55 | 48.79952 | 10.78540 | 19485 ft | 341 kts | 139° |
| 2026-05-06 22:55 | 48.78302 | 10.81112 | 19081 ft | 340 kts | 140° |
| 2026-05-06 22:56 | 48.76655 | 10.83674 | 18700 ft | 339 kts | 139° |
| 2026-05-06 22:56 | 48.75017 | 10.86234 | 18318 ft | 338 kts | 139° |
| 2026-05-06 22:56 | 48.73381 | 10.88792 | 17865 ft | 338 kts | 139° |
| 2026-05-06 22:56 | 48.71751 | 10.91333 | 17453 ft | 336 kts | 139° |
| 2026-05-06 22:57 | 48.70122 | 10.93859 | 17044 ft | 334 kts | 139° |
| 2026-05-06 22:57 | 48.68512 | 10.96373 | 16670 ft | 332 kts | 139° |
| 2026-05-06 22:57 | 48.66910 | 10.98871 | 16291 ft | 330 kts | 139° |
| 2026-05-06 22:57 | 48.65313 | 11.01353 | 15912 ft | 328 kts | 139° |
| 2026-05-06 22:58 | 48.63722 | 11.03824 | 15529 ft | 327 kts | 140° |
| 2026-05-06 22:58 | 48.62136 | 11.06277 | 15163 ft | 326 kts | 139° |
| 2026-05-06 22:58 | 48.60562 | 11.08728 | 14797 ft | 325 kts | 139° |
| 2026-05-06 22:58 | 48.58983 | 11.11169 | 14418 ft | 324 kts | 140° |
| 2026-05-06 22:59 | 48.57369 | 11.13524 | 14062 ft | 321 kts | 146° |
| 2026-05-06 22:59 | 48.55567 | 11.15485 | 13697 ft | 319 kts | 151° |
| 2026-05-06 22:59 | 48.53733 | 11.17376 | 13285 ft | 322 kts | 144° |
| 2026-05-06 22:59 | 48.52352 | 11.20080 | 12876 ft | 334 kts | 118° |
| 2026-05-06 23:00 | 48.51896 | 11.23516 | 12671 ft | 339 kts | 92° |
| 2026-05-06 23:00 | 48.52231 | 11.27039 | 12427 ft | 339 kts | 82° |
| 2026-05-06 23:00 | 48.52733 | 11.30519 | 12178 ft | 340 kts | 81° |
| 2026-05-06 23:00 | 48.53260 | 11.33997 | 11857 ft | 340 kts | 81° |
| 2026-05-06 23:01 | 48.53783 | 11.37464 | 11632 ft | 337 kts | 81° |
| 2026-05-06 23:01 | 48.54254 | 11.40615 | 11408 ft | 334 kts | 82° |
| 2026-05-06 23:01 | 48.54754 | 11.44025 | 11165 ft | 332 kts | 81° |
| 2026-05-06 23:01 | 48.55245 | 11.47377 | 10938 ft | 331 kts | 81° |
| 2026-05-06 23:02 | 48.55732 | 11.50765 | 10705 ft | 330 kts | 81° |
| 2026-05-06 23:02 | 48.56211 | 11.54141 | 10446 ft | 327 kts | 82° |
| 2026-05-06 23:02 | 48.56678 | 11.57478 | 10206 ft | 323 kts | 83° |
| 2026-05-06 23:02 | 48.56743 | 11.60790 | 9960 ft | 311 kts | 107° |
| 2026-05-06 23:03 | 48.56154 | 11.63856 | 9896 ft | 298 kts | 115° |
| 2026-05-06 23:03 | 48.55473 | 11.66765 | 9633 ft | 295 kts | 116° |
| 2026-05-06 23:03 | 48.54773 | 11.69670 | 9356 ft | 292 kts | 116° |
| 2026-05-06 23:03 | 48.54088 | 11.72536 | 9103 ft | 288 kts | 116° |
| 2026-05-06 23:04 | 48.53419 | 11.75365 | 8854 ft | 285 kts | 115° |
| 2026-05-06 23:04 | 48.52761 | 11.78160 | 8649 ft | 281 kts | 115° |
| 2026-05-06 23:04 | 48.52114 | 11.80937 | 8445 ft | 280 kts | 115° |
| 2026-05-06 23:04 | 48.51472 | 11.83704 | 8236 ft | 280 kts | 115° |
| 2026-05-06 23:05 | 48.50820 | 11.86481 | 8033 ft | 283 kts | 115° |
| 2026-05-06 23:05 | 48.50161 | 11.89290 | 7833 ft | 285 kts | 114° |
| 2026-05-06 23:05 | 48.49506 | 11.92127 | 7618 ft | 288 kts | 114° |
| 2026-05-06 23:05 | 48.48849 | 11.94999 | 7412 ft | 291 kts | 114° |
| 2026-05-06 23:06 | 48.48187 | 11.97882 | 7198 ft | 291 kts | 114° |
| 2026-05-06 23:06 | 48.47527 | 12.00751 | 6975 ft | 288 kts | 114° |
| 2026-05-06 23:06 | 48.46868 | 12.03588 | 6758 ft | 285 kts | 114° |
| 2026-05-06 23:06 | 48.46216 | 12.06399 | 6548 ft | 284 kts | 114° |
| 2026-05-06 23:07 | 48.45558 | 12.09212 | 6349 ft | 285 kts | 113° |
| 2026-05-06 23:07 | 48.44895 | 12.12017 | 6116 ft | 283 kts | 114° |
| 2026-05-06 23:07 | 48.44230 | 12.14781 | 5922 ft | 278 kts | 119° |
| 2026-05-06 23:07 | 48.43020 | 12.16844 | 5677 ft | 258 kts | 165° |
| 2026-05-06 23:08 | 48.41373 | 12.17015 | 5547 ft | 228 kts | 208° |
| 2026-05-06 23:08 | 48.40074 | 12.15900 | 5501 ft | 207 kts | 227° |
| 2026-05-06 23:08 | 48.39240 | 12.14245 | 5327 ft | 194 kts | 250° |
| 2026-05-06 23:08 | 48.38918 | 12.12366 | 5217 ft | 180 kts | 269° |
| 2026-05-06 23:09 | 48.38832 | 12.10544 | 5071 ft | 169 kts | 269° |
| 2026-05-06 23:09 | 48.38730 | 12.08862 | 5010 ft | 154 kts | 267° |
| 2026-05-06 23:09 | 48.38643 | 12.07306 | 4835 ft | 145 kts | 272° |
| 2026-05-06 23:09 | 48.38802 | 12.05860 | 4585 ft | 136 kts | 282° |
| 2026-05-06 23:10 | 48.38821 | 12.04495 | 4415 ft | 135 kts | 268° |
| 2026-05-06 23:10 | 48.38702 | 12.03119 | 4253 ft | 127 kts | 264° |
| 2026-05-06 23:10 | 48.38511 | 12.01829 | 4140 ft | 127 kts | 256° |
| 2026-05-06 23:10 | 48.38207 | 12.00554 | 4026 ft | 134 kts | 254° |
| 2026-05-06 23:11 | 48.37897 | 11.99218 | 3779 ft | 134 kts | 256° |
| 2026-05-06 23:11 | 48.37672 | 11.97875 | 3482 ft | 131 kts | 260° |
| 2026-05-06 23:11 | 48.37537 | 11.96546 | 3196 ft | 126 kts | 265° |
| 2026-05-06 23:11 | 48.37501 | 11.95247 | 2931 ft | 124 kts | 269° |
| 2026-05-06 23:12 | 48.37520 | 11.93935 | 2778 ft | 124 kts | 269° |
| 2026-05-06 23:12 | 48.37512 | 11.92611 | 2814 ft | 131 kts | 266° |
| 2026-05-06 23:12 | 48.37459 | 11.91243 | 2785 ft | 131 kts | 265° |
| 2026-05-06 23:12 | 48.37351 | 11.89867 | 2601 ft | 135 kts | 261° |
| 2026-05-06 23:13 | 48.37212 | 11.88406 | 2316 ft | 144 kts | 262° |
| 2026-05-06 23:13 | 48.37066 | 11.86921 | 2152 ft | 145 kts | 261° |
| 2026-05-06 23:13 | 48.36936 | 11.85415 | 1919 ft | 145 kts | 261° |
| 2026-05-06 23:13 | 48.36825 | 11.83911 | 1725 ft | 148 kts | 261° |
| 2026-05-06 23:14 | 48.36756 | 11.82905 | 1624 ft | 145 kts | 259° |
| 2026-05-06 23:14 | 48.36588 | 11.80913 | 1467 ft | 139 kts | 264° |
| 2026-05-06 23:14 | 48.36537 | 11.80031 | 1460 ft | 104 kts | 263° |
| 2026-05-06 23:14 | 48.36471 | 11.79319 | 1469 ft | 35 kts | 267° |
| 2026-05-06 23:15 | 48.36416 | 11.78933 | 1462 ft | 14 kts | 237° |
| 2026-05-06 23:15 | 48.36396 | 11.78890 | 1467 ft | 5 kts | 234° |
| 2026-05-06 23:15 | 48.36376 | 11.78849 | 1464 ft | 5 kts | 234° |
| 2026-05-06 23:15 | 48.36348 | 11.78789 | 1467 ft | 6 kts | 234° |
| 2026-05-06 23:16 | 48.36330 | 11.78753 | 1460 ft | 7 kts | 234° |
| 2026-05-06 23:16 | 48.36304 | 11.78697 | 1465 ft | 6 kts | 234° |
| 2026-05-06 23:16 | 48.36277 | 11.78643 | 1465 ft | 6 kts | 233° |
| 2026-05-06 23:16 | 48.36251 | 11.78590 | 1461 ft | 6 kts | 233° |
| 2026-05-06 23:17 | 48.36221 | 11.78543 | 1462 ft | 6 kts | 225° |
| 2026-05-06 23:17 | 48.36190 | 11.78500 | 1463 ft | 6 kts | 216° |
| 2026-05-06 23:17 | 48.36152 | 11.78476 | 1466 ft | 6 kts | 178° |
| 2026-05-06 23:17 | 48.36111 | 11.78474 | 1464 ft | 6 kts | 185° |
| 2026-05-06 23:18 | 48.36070 | 11.78475 | 1457 ft | 6 kts | 175° |
| 2026-05-06 23:18 | 48.36032 | 11.78461 | 1459 ft | 6 kts | 226° |
| 2026-05-06 23:18 | 48.36024 | 11.78402 | 1462 ft | 6 kts | 265° |
| 2026-05-06 23:18 | 48.36020 | 11.78342 | 1466 ft | 6 kts | 265° |
| 2026-05-06 23:19 | 48.36017 | 11.78283 | 1461 ft | 6 kts | 264° |
| 2026-05-06 23:19 | 48.36011 | 11.78223 | 1466 ft | 6 kts | 259° |
| 2026-05-06 23:19 | 48.36002 | 11.78157 | 1462 ft | 7 kts | 258° |
| 2026-05-06 23:19 | 48.35996 | 11.78079 | 1466 ft | 8 kts | 265° |
| 2026-05-06 23:20 | 48.35991 | 11.77988 | 1466 ft | 9 kts | 264° |
| 2026-05-06 23:20 | 48.35985 | 11.77892 | 1466 ft | 9 kts | 264° |
| 2026-05-06 23:20 | 48.35979 | 11.77798 | 1466 ft | 9 kts | 264° |
| 2026-05-06 23:20 | 48.35963 | 11.77711 | 1464 ft | 9 kts | 224° |
| 2026-05-06 23:21 | 48.35905 | 11.77692 | 1462 ft | 9 kts | 182° |
| 2026-05-06 23:21 | 48.35844 | 11.77696 | 1465 ft | 9 kts | 177° |
| 2026-05-06 23:21 | 48.35783 | 11.77704 | 1465 ft | 9 kts | 174° |
| 2026-05-06 23:21 | 48.35723 | 11.77715 | 1465 ft | 9 kts | 173° |
| 2026-05-06 23:22 | 48.35665 | 11.77726 | 1465 ft | 8 kts | 173° |
| 2026-05-06 23:22 | 48.35609 | 11.77737 | 1465 ft | 8 kts | 173° |
| 2026-05-06 23:22 | 48.35554 | 11.77746 | 1465 ft | 8 kts | 175° |
| 2026-05-06 23:22 | 48.35502 | 11.77753 | 1465 ft | 8 kts | 175° |
| 2026-05-06 23:23 | 48.35450 | 11.77759 | 1465 ft | 7 kts | 175° |
| 2026-05-06 23:23 | 48.35401 | 11.77768 | 1465 ft | 7 kts | 173° |
| 2026-05-06 23:23 | 48.35364 | 11.77810 | 1465 ft | 7 kts | 120° |
| 2026-05-06 23:23 | 48.35345 | 11.77876 | 1465 ft | 7 kts | 109° |
| 2026-05-06 23:24 | 48.35342 | 11.77946 | 1465 ft | 7 kts | 83° |
| 2026-05-06 23:24 | 48.35350 | 11.78015 | 1465 ft | 7 kts | 79° |
| 2026-05-06 23:24 | 48.35351 | 11.78083 | 1460 ft | 7 kts | 93° |
| 2026-05-06 23:24 | 48.35337 | 11.78145 | 1463 ft | 6 kts | 133° |
| 2026-05-06 23:25 | 48.35317 | 11.78200 | 1464 ft | 6 kts | 91° |
| 2026-05-06 23:25 | 48.35319 | 11.78266 | 1465 ft | 6 kts | 85° |
| 2026-05-06 23:25 | 48.35322 | 11.78316 | 1465 ft | 0 kts | 81° |